Time;durP1;ratioP1;P1;durP2;ratioP2;P2;SDS_P1;SDS_P2;PMS_P1;PMS_P2;Temp;Humidity;BMP_temperature;BMP_pressure;BME280_temperature;BME280_humidity;BME280_pressure;Samples;Min_cycle;Max_cycle;Signal;HPM_P1;HPM_P2
2021/09/06 00:01:25;0.00;0.00;0.62;0.00;0.00;0.62;9.40;8.30;;;25.60;34.40;;;;;;2264880;61;20364;-61
2021/09/06 00:04:10;0.00;0.00;0.62;0.00;0.00;0.62;9.70;8.80;;;25.60;34.30;;;;;;2265942;61;20726;-61
2021/09/06 00:06:55;0.00;0.00;0.62;0.00;0.00;0.62;10.23;9.30;;;25.60;34.20;;;;;;2266025;61;20360;-59
2021/09/06 00:09:40;0.00;0.00;0.62;0.00;0.00;0.62;11.00;10.00;;;25.50;34.10;;;;;;2264632;61;20364;-59
2021/09/06 00:12:24;0.00;0.00;0.62;0.00;0.00;0.62;9.13;8.17;;;25.60;34.20;;;;;;2266016;61;20377;-59
2021/09/06 00:15:11;0.00;0.00;0.62;0.00;0.00;0.62;9.27;8.27;;;25.50;34.20;;;;;;2265895;61;20431;-58
2021/09/06 00:17:56;0.00;0.00;0.62;0.00;0.00;0.62;10.03;9.03;;;25.50;34.20;;;;;;2265095;61;20380;-61
2021/09/06 00:20:42;0.00;0.00;0.62;0.00;0.00;0.62;9.13;8.20;;;25.50;34.20;;;;;;2265487;61;20569;-60
2021/09/06 00:23:28;0.00;0.00;0.62;0.00;0.00;0.62;10.67;9.57;;;25.50;34.20;;;;;;2265021;61;20381;-61
2021/09/06 00:26:12;0.00;0.00;0.62;0.00;0.00;0.62;10.43;9.43;;;25.50;34.20;;;;;;2265803;61;20425;-61
2021/09/06 00:28:58;0.00;0.00;0.62;0.00;0.00;0.62;8.80;8.00;;;25.50;34.30;;;;;;2265961;61;20442;-61
2021/09/06 00:31:44;0.00;0.00;0.62;0.00;0.00;0.62;8.60;7.70;;;25.50;34.30;;;;;;2264576;61;20395;-61
2021/09/06 00:34:29;0.00;0.00;0.62;0.00;0.00;0.62;9.20;8.30;;;25.50;34.30;;;;;;2265886;61;20484;-60
2021/09/06 00:37:13;0.00;0.00;0.62;0.00;0.00;0.62;9.27;8.37;;;25.50;34.20;;;;;;2265706;61;20415;-61
2021/09/06 00:39:58;0.00;0.00;0.62;0.00;0.00;0.62;8.73;7.83;;;25.50;34.20;;;;;;2264697;61;20714;-59
2021/09/06 00:42:42;0.00;0.00;0.62;0.00;0.00;0.62;10.20;8.60;;;25.50;34.20;;;;;;2265453;61;20385;-61
2021/09/06 00:45:27;0.00;0.00;0.62;0.00;0.00;0.62;8.30;7.47;;;25.50;34.20;;;;;;2264501;61;20853;-59
2021/09/06 00:48:17;0.00;0.00;0.62;0.00;0.00;0.62;9.13;8.23;;;25.40;34.20;;;;;;2265571;61;20583;-61
2021/09/06 00:51:02;0.00;0.00;0.62;0.00;0.00;0.62;10.00;9.00;;;25.40;34.10;;;;;;2265319;61;20385;-59
2021/09/06 00:53:46;0.00;0.00;0.62;0.00;0.00;0.62;9.33;8.43;;;25.40;34.10;;;;;;2264199;61;20605;-61
2021/09/06 00:56:33;0.00;0.00;0.62;0.00;0.00;0.62;8.03;7.23;;;25.40;34.10;;;;;;2265792;61;20388;-61
2021/09/06 00:59:18;0.00;0.00;0.62;0.00;0.00;0.62;8.60;7.80;;;25.40;34.10;;;;;;2265748;61;20361;-61
2021/09/06 01:02:03;0.00;0.00;0.62;0.00;0.00;0.62;9.47;8.53;;;25.40;34.10;;;;;;2264555;61;20752;-59
2021/09/06 01:04:49;0.00;0.00;0.62;0.00;0.00;0.62;9.20;8.30;;;25.40;34.20;;;;;;2265753;61;20435;-60
2021/09/06 01:07:56;0.00;0.00;0.62;0.00;0.00;0.62;8.53;7.73;;;25.40;34.20;;;;;;2264581;61;20365;-60
2021/09/06 01:11:03;0.00;0.00;0.62;0.00;0.00;0.62;9.57;8.30;;;25.40;34.20;;;;;;2265295;61;20361;-60
2021/09/06 01:14:22;0.00;0.00;0.62;0.00;0.00;0.62;9.53;8.57;;;25.40;34.20;;;;;;2265339;61;20701;-61
2021/09/06 01:17:08;0.00;0.00;0.62;0.00;0.00;0.62;9.77;8.40;;;25.40;34.20;;;;;;2264445;61;20404;-61
2021/09/06 01:19:56;0.00;0.00;0.62;0.00;0.00;0.62;9.93;8.93;;;25.30;34.10;;;;;;2265108;61;20630;-60
2021/09/06 01:22:41;0.00;0.00;0.62;0.00;0.00;0.62;8.97;8.03;;;25.30;34.10;;;;;;2264859;61;20488;-61
2021/09/06 01:25:35;0.00;0.00;0.62;0.00;0.00;0.62;9.47;8.50;;;25.30;34.10;;;;;;2265752;61;20400;-61
2021/09/06 01:28:22;0.00;0.00;0.62;0.00;0.00;0.62;9.07;8.00;;;25.30;34.10;;;;;;2265332;61;20426;-61
2021/09/06 01:31:07;0.00;0.00;0.62;0.00;0.00;0.62;10.03;8.40;;;25.30;34.10;;;;;;2264019;61;20369;-61
2021/09/06 01:33:59;0.00;0.00;0.62;0.00;0.00;0.62;9.10;8.20;;;25.30;34.10;;;;;;2263726;61;20393;-60
2021/09/06 01:36:44;0.00;0.00;0.62;0.00;0.00;0.62;9.50;8.60;;;25.30;34.10;;;;;;2265774;61;20420;-60
2021/09/06 01:39:29;0.00;0.00;0.62;0.00;0.00;0.62;9.80;8.80;;;25.30;34.10;;;;;;2265493;61;20709;-61
2021/09/06 01:42:14;0.00;0.00;0.62;0.00;0.00;0.62;9.13;8.23;;;25.20;34.00;;;;;;2265943;61;20693;-60
2021/09/06 01:45:02;0.00;0.00;0.62;0.00;0.00;0.62;9.37;8.37;;;25.20;33.90;;;;;;2265082;61;20562;-60
2021/09/06 01:47:48;0.00;0.00;0.62;0.00;0.00;0.62;9.80;8.87;;;25.20;34.00;;;;;;2265934;61;20453;-60
2021/09/06 01:50:35;0.00;0.00;0.62;0.00;0.00;0.62;9.50;8.50;;;25.30;34.00;;;;;;2265882;61;20357;-61
2021/09/06 01:53:19;0.00;0.00;0.62;0.00;0.00;0.62;9.23;8.33;;;25.20;34.70;;;;;;2265144;61;20641;-59
2021/09/06 01:56:07;0.00;0.00;0.62;0.00;0.00;0.62;11.63;7.57;;;25.20;34.00;;;;;;2265753;61;20385;-61
2021/09/06 01:58:53;0.00;0.00;0.62;0.00;0.00;0.62;9.07;8.17;;;25.20;34.00;;;;;;2265888;61;20365;-61
2021/09/06 02:01:39;0.00;0.00;0.62;0.00;0.00;0.62;8.70;7.83;;;25.20;34.00;;;;;;2265236;61;20381;-61
2021/09/06 02:04:23;0.00;0.00;0.62;0.00;0.00;0.62;11.40;8.47;;;25.20;33.90;;;;;;2265954;61;20369;-61
2021/09/06 02:07:08;0.00;0.00;0.62;0.00;0.00;0.62;8.70;7.90;;;25.20;34.00;;;;;;2265072;61;20358;-61
2021/09/06 02:09:53;0.00;0.00;0.62;0.00;0.00;0.62;9.20;8.20;;;25.20;33.90;;;;;;2265813;61;20365;-61
2021/09/06 02:12:37;0.00;0.00;0.62;0.00;0.00;0.62;9.97;8.97;;;25.20;33.90;;;;;;2265904;61;20755;-61
2021/09/06 02:15:24;0.00;0.00;0.62;0.00;0.00;0.62;8.63;7.73;;;25.20;33.90;;;;;;2264725;61;20361;-61
2021/09/06 02:18:10;0.00;0.00;0.62;0.00;0.00;0.62;9.67;8.33;;;25.10;33.80;;;;;;2265826;61;20412;-61
2021/09/06 02:20:56;0.00;0.00;0.62;0.00;0.00;0.62;9.37;8.47;;;25.10;33.80;;;;;;2265647;61;20435;-61
2021/09/06 02:23:41;0.00;0.00;0.62;0.00;0.00;0.62;11.10;8.50;;;25.10;33.80;;;;;;2265017;61;20795;-61
2021/09/06 02:26:26;0.00;0.00;0.62;0.00;0.00;0.62;9.50;7.80;;;25.10;33.80;;;;;;2265866;61;20617;-61
2021/09/06 02:29:12;0.00;0.00;0.62;0.00;0.00;0.62;9.20;8.20;;;25.10;33.80;;;;;;2265020;61;20360;-61
2021/09/06 02:32:05;0.00;0.00;0.62;0.00;0.00;0.62;9.17;8.33;;;25.10;33.80;;;;;;2265822;61;20384;-60
2021/09/06 02:35:04;0.00;0.00;0.62;0.00;0.00;0.62;9.57;8.57;;;25.10;33.80;;;;;;2265780;61;20365;-61
2021/09/06 02:37:50;0.00;0.00;0.62;0.00;0.00;0.62;10.23;9.13;;;25.10;33.80;;;;;;2264349;61;20389;-60
2021/09/06 02:40:35;0.00;0.00;0.62;0.00;0.00;0.62;8.80;7.90;;;25.10;33.90;;;;;;2265610;61;20365;-60
2021/09/06 02:43:20;0.00;0.00;0.62;0.00;0.00;0.62;11.17;9.50;;;25.10;33.90;;;;;;2265934;61;20994;-60
2021/09/06 02:46:05;0.00;0.00;0.62;0.00;0.00;0.62;10.17;8.77;;;25.10;33.90;;;;;;2265275;61;20373;-60
2021/09/06 02:48:50;0.00;0.00;0.62;0.00;0.00;0.62;9.70;8.70;;;25.10;33.90;;;;;;2265777;61;20365;-60
2021/09/06 02:51:39;0.00;0.00;0.62;0.00;0.00;0.62;9.80;8.90;;;25.10;33.90;;;;;;2264838;61;20408;-60
2021/09/06 02:54:25;0.00;0.00;0.62;0.00;0.00;0.62;11.03;8.40;;;25.00;33.90;;;;;;2265715;61;20369;-60
2021/09/06 02:57:09;0.00;0.00;0.62;0.00;0.00;0.62;8.93;8.03;;;25.00;33.90;;;;;;2266088;61;20660;-60
2021/09/06 02:59:54;0.00;0.00;0.62;0.00;0.00;0.62;8.70;7.90;;;25.00;33.90;;;;;;2264300;61;20598;-60
2021/09/06 03:02:38;0.00;0.00;0.62;0.00;0.00;0.62;8.80;7.90;;;25.00;33.90;;;;;;2266098;61;20748;-61
2021/09/06 03:05:26;0.00;0.00;0.62;0.00;0.00;0.62;9.23;8.33;;;25.00;33.90;;;;;;2265783;61;20429;-60
2021/09/06 03:08:14;0.00;0.00;0.62;0.00;0.00;0.62;8.53;7.60;;;25.00;33.90;;;;;;2265514;61;20619;-60
2021/09/06 03:10:59;0.00;0.00;0.62;0.00;0.00;0.62;10.90;8.50;;;25.00;33.90;;;;;;2265673;61;20586;-60
2021/09/06 03:13:44;0.00;0.00;0.62;0.00;0.00;0.62;9.60;8.60;;;25.00;33.90;;;;;;2264850;61;20372;-61
2021/09/06 03:16:28;0.00;0.00;0.62;0.00;0.00;0.62;9.80;8.80;;;25.00;33.90;;;;;;2265914;61;20706;-60
2021/09/06 03:19:16;0.00;0.00;0.62;0.00;0.00;0.62;9.47;8.03;;;25.00;33.90;;;;;;2265680;61;20429;-61
2021/09/06 03:22:06;0.00;0.00;0.62;0.00;0.00;0.62;8.93;7.93;;;25.00;33.90;;;;;;2264354;61;20803;-61
2021/09/06 03:24:52;0.00;0.00;0.62;0.00;0.00;0.62;9.43;7.70;;;24.90;33.80;;;;;;2265693;61;20369;-61
2021/09/06 03:27:38;0.00;0.00;0.62;0.00;0.00;0.62;9.20;8.20;;;24.90;33.80;;;;;;2265655;61;20473;-61
2021/09/06 03:30:23;0.00;0.00;0.62;0.00;0.00;0.62;8.17;7.37;;;24.90;33.80;;;;;;2265274;61;20412;-60
2021/09/06 03:33:13;0.00;0.00;0.62;0.00;0.00;0.62;8.33;7.27;;;24.90;33.80;;;;;;2265660;61;20585;-61
2021/09/06 03:36:00;0.00;0.00;0.62;0.00;0.00;0.62;9.73;8.30;;;24.90;33.80;;;;;;2264593;61;20377;-60
2021/09/06 03:38:46;0.00;0.00;0.62;0.00;0.00;0.62;8.30;7.50;;;24.90;33.80;;;;;;2265565;61;20365;-60
2021/09/06 03:41:33;0.00;0.00;0.62;0.00;0.00;0.62;8.03;7.23;;;24.90;33.80;;;;;;2265419;61;20361;-60
2021/09/06 03:44:19;0.00;0.00;0.62;0.00;0.00;0.62;7.80;7.10;;;24.90;33.80;;;;;;2264334;61;20365;-60
2021/09/06 03:47:04;0.00;0.00;0.62;0.00;0.00;0.62;9.27;8.37;;;24.90;33.80;;;;;;2265669;61;20372;-60
2021/09/06 03:49:50;0.00;0.00;0.62;0.00;0.00;0.62;9.27;7.67;;;24.90;33.70;;;;;;2265300;61;20753;-60
2021/09/06 03:52:35;0.00;0.00;0.62;0.00;0.00;0.62;9.30;8.40;;;24.90;33.70;;;;;;2264994;61;20449;-60
2021/09/06 03:55:21;0.00;0.00;0.62;0.00;0.00;0.62;10.77;8.70;;;24.80;33.60;;;;;;2266018;61;20403;-60
2021/09/06 03:58:07;0.00;0.00;0.62;0.00;0.00;0.62;9.97;8.63;;;24.90;33.70;;;;;;2264632;61;20401;-60
2021/09/06 04:00:54;0.00;0.00;0.62;0.00;0.00;0.62;9.50;8.50;;;24.80;33.70;;;;;;2265479;61;20476;-60
2021/09/06 04:03:40;0.00;0.00;0.62;0.00;0.00;0.62;10.67;8.73;;;24.80;33.60;;;;;;2265384;61;20745;-60
2021/09/06 04:06:25;0.00;0.00;0.62;0.00;0.00;0.62;9.60;8.50;;;24.80;33.70;;;;;;2264813;61;20380;-60
2021/09/06 04:09:10;0.00;0.00;0.62;0.00;0.00;0.62;9.37;8.47;;;24.80;33.60;;;;;;2265662;61;20389;-60
2021/09/06 04:11:55;0.00;0.00;0.62;0.00;0.00;0.62;9.00;8.10;;;24.80;33.60;;;;;;2265828;61;20711;-61
2021/09/06 04:14:42;0.00;0.00;0.62;0.00;0.00;0.62;9.00;8.10;;;24.80;33.70;;;;;;2264788;61;20676;-60
2021/09/06 04:17:27;0.00;0.00;0.62;0.00;0.00;0.62;9.20;8.30;;;24.80;33.70;;;;;;2265325;61;20511;-63
2021/09/06 04:20:12;0.00;0.00;0.62;0.00;0.00;0.62;10.43;8.90;;;24.80;33.60;;;;;;2264434;61;20409;-59
2021/09/06 04:22:58;0.00;0.00;0.62;0.00;0.00;0.62;10.30;9.20;;;24.70;33.50;;;;;;2265435;61;20384;-61
2021/09/06 04:25:43;0.00;0.00;0.62;0.00;0.00;0.62;10.90;8.93;;;24.70;33.60;;;;;;2265315;61;20376;-59
2021/09/06 04:28:27;0.00;0.00;0.62;0.00;0.00;0.62;9.43;8.17;;;24.70;33.50;;;;;;2264495;61;20361;-60
2021/09/06 04:31:16;0.00;0.00;0.62;0.00;0.00;0.62;9.23;8.20;;;24.70;33.60;;;;;;2265387;61;20627;-58
2021/09/06 04:34:00;0.00;0.00;0.62;0.00;0.00;0.62;10.53;8.63;;;24.70;33.60;;;;;;2265466;61;20369;-61
2021/09/06 04:36:49;0.00;0.00;0.62;0.00;0.00;0.62;9.67;8.67;;;24.70;33.60;;;;;;2264573;61;20464;-61
2021/09/06 04:39:33;0.00;0.00;0.62;0.00;0.00;0.62;9.80;8.40;;;24.70;33.60;;;;;;2265174;61;20384;-61
2021/09/06 04:42:19;0.00;0.00;0.62;0.00;0.00;0.62;10.37;8.60;;;24.70;33.60;;;;;;2264671;61;20380;-61
2021/09/06 04:45:07;0.00;0.00;0.62;0.00;0.00;0.62;9.50;8.37;;;24.70;33.60;;;;;;2265149;61;20341;-59
2021/09/06 04:47:55;0.00;0.00;0.62;0.00;0.00;0.62;9.70;8.70;;;24.70;33.60;;;;;;2265407;61;20365;-61
2021/09/06 04:50:40;0.00;0.00;0.62;0.00;0.00;0.62;9.00;8.10;;;24.70;33.60;;;;;;2264556;61;20365;-61
2021/09/06 04:53:25;0.00;0.00;0.62;0.00;0.00;0.62;9.03;7.33;;;24.70;33.60;;;;;;2265290;61;20465;-61
2021/09/06 04:56:10;0.00;0.00;0.62;0.00;0.00;0.62;10.23;9.23;;;24.70;33.60;;;;;;2265388;61;20388;-60
2021/09/06 04:58:59;0.00;0.00;0.62;0.00;0.00;0.62;9.53;8.37;;;24.60;33.50;;;;;;2264394;61;20416;-61
2021/09/06 05:01:44;0.00;0.00;0.62;0.00;0.00;0.62;11.07;8.60;;;24.60;33.50;;;;;;2265151;61;20377;-61
2021/09/06 05:04:31;0.00;0.00;0.62;0.00;0.00;0.62;10.40;8.77;;;24.60;33.50;;;;;;2264645;61;20385;-61
2021/09/06 05:07:16;0.00;0.00;0.62;0.00;0.00;0.62;9.03;8.13;;;24.60;33.50;;;;;;2265446;61;20372;-61
2021/09/06 05:10:02;0.00;0.00;0.62;0.00;0.00;0.62;9.40;8.40;;;24.60;33.60;;;;;;2265959;61;20396;-61
2021/09/06 05:12:48;0.00;0.00;0.62;0.00;0.00;0.62;9.33;7.63;;;24.60;33.60;;;;;;2264847;61;20608;-61
2021/09/06 05:15:34;0.00;0.00;0.62;0.00;0.00;0.62;10.47;8.93;;;24.60;33.50;;;;;;2266009;61;20440;-61
2021/09/06 05:18:18;0.00;0.00;0.62;0.00;0.00;0.62;12.27;8.57;;;24.60;33.50;;;;;;2266383;61;20360;-61
2021/09/06 05:21:04;0.00;0.00;0.62;0.00;0.00;0.62;10.27;9.23;;;24.60;33.60;;;;;;2264661;61;20361;-61
2021/09/06 05:23:49;0.00;0.00;0.62;0.00;0.00;0.62;10.70;8.00;;;24.60;33.60;;;;;;2266107;61;20602;-61
2021/09/06 05:26:35;0.00;0.00;0.62;0.00;0.00;0.62;9.33;7.90;;;24.60;33.60;;;;;;2265177;61;20407;-61
2021/09/06 05:29:21;0.00;0.00;0.62;0.00;0.00;0.62;8.90;8.00;;;24.60;33.60;;;;;;2265680;61;20426;-60
2021/09/06 05:32:06;0.00;0.00;0.62;0.00;0.00;0.62;9.57;8.57;;;24.60;33.60;;;;;;2266132;61;20423;-61
2021/09/06 05:34:51;0.00;0.00;0.62;0.00;0.00;0.62;9.47;7.90;;;24.60;33.60;;;;;;2264678;61;20565;-61
2021/09/06 05:37:37;0.00;0.00;0.62;0.00;0.00;0.62;9.23;8.20;;;24.60;33.60;;;;;;2265882;61;20599;-61
2021/09/06 05:40:23;0.00;0.00;0.62;0.00;0.00;0.62;10.17;8.53;;;24.60;33.70;;;;;;2265817;61;20480;-61
2021/09/06 05:43:07;0.00;0.00;0.62;0.00;0.00;0.62;9.00;8.10;;;24.60;33.70;;;;;;2264393;61;20380;-61
2021/09/06 05:45:52;0.00;0.00;0.62;0.00;0.00;0.62;9.70;8.70;;;24.60;33.70;;;;;;2265363;61;20716;-61
2021/09/06 05:48:37;0.00;0.00;0.62;0.00;0.00;0.62;8.53;7.43;;;24.60;33.70;;;;;;2265321;61;20430;-61
2021/09/06 05:51:25;0.00;0.00;0.62;0.00;0.00;0.62;10.33;7.67;;;24.50;33.60;;;;;;2265881;61;20402;-61
2021/09/06 05:54:24;0.00;0.00;0.62;0.00;0.00;0.62;8.27;7.40;;;24.60;33.80;;;;;;2266016;61;20537;-61
2021/09/06 05:57:09;0.00;0.00;0.62;0.00;0.00;0.62;7.57;6.77;;;24.60;33.70;;;;;;2265085;61;20389;-61
2021/09/06 05:59:54;0.00;0.00;0.62;0.00;0.00;0.62;7.97;6.90;;;24.50;33.60;;;;;;2265785;61;20403;-61
2021/09/06 06:02:39;0.00;0.00;0.62;0.00;0.00;0.62;9.80;7.73;;;24.60;33.80;;;;;;2265903;61;20427;-62
2021/09/06 06:05:23;0.00;0.00;0.62;0.00;0.00;0.62;8.50;7.30;;;24.50;33.70;;;;;;2265235;61;20763;-61
2021/09/06 06:08:08;0.00;0.00;0.62;0.00;0.00;0.62;8.63;7.73;;;24.50;33.70;;;;;;2266375;61;20349;-61
2021/09/06 06:10:55;0.00;0.00;0.62;0.00;0.00;0.62;7.67;6.87;;;24.50;33.70;;;;;;2264974;61;20377;-61
2021/09/06 06:13:39;0.00;0.00;0.62;0.00;0.00;0.62;9.87;7.30;;;24.60;33.90;;;;;;2266394;61;20431;-61
2021/09/06 06:16:24;0.00;0.00;0.62;0.00;0.00;0.62;7.50;6.70;;;24.50;33.80;;;;;;2265828;61;20381;-61
2021/09/06 06:19:11;0.00;0.00;0.62;0.00;0.00;0.62;6.27;5.67;;;24.50;33.80;;;;;;2265017;61;20380;-61
2021/09/06 06:22:15;0.00;0.00;0.62;0.00;0.00;0.62;5.70;5.20;;;24.50;33.80;;;;;;2265791;61;20476;-61
2021/09/06 06:25:12;0.00;0.00;0.62;0.00;0.00;0.62;5.57;5.07;;;24.50;33.90;;;;;;2265879;61;20365;-61
2021/09/06 06:28:06;0.00;0.00;0.62;0.00;0.00;0.62;6.60;5.90;;;24.50;33.90;;;;;;2265914;61;20361;-61
2021/09/06 06:30:51;0.00;0.00;0.62;0.00;0.00;0.62;6.67;5.57;;;24.50;33.90;;;;;;2265753;61;20385;-61
2021/09/06 06:33:39;0.00;0.00;0.62;0.00;0.00;0.62;6.10;5.50;;;24.50;33.90;;;;;;2264992;61;20385;-61
2021/09/06 06:36:26;0.00;0.00;0.62;0.00;0.00;0.62;6.73;5.67;;;24.50;33.90;;;;;;2265859;61;20788;-62
2021/09/06 06:39:11;0.00;0.00;0.62;0.00;0.00;0.62;7.13;6.30;;;24.50;33.90;;;;;;2265768;61;20728;-61
2021/09/06 06:41:57;0.00;0.00;0.62;0.00;0.00;0.62;7.87;6.40;;;24.50;33.90;;;;;;2264982;61;20381;-61
2021/09/06 06:44:45;0.00;0.00;0.62;0.00;0.00;0.62;6.33;5.60;;;24.50;33.90;;;;;;2265841;61;20363;-61
2021/09/06 06:47:35;0.00;0.00;0.62;0.00;0.00;0.62;6.97;5.40;;;24.50;34.00;;;;;;2265651;61;20702;-59
2021/09/06 06:50:22;0.00;0.00;0.62;0.00;0.00;0.62;6.43;5.67;;;24.50;34.00;;;;;;2265754;61;20357;-60
2021/09/06 06:53:07;0.00;0.00;0.62;0.00;0.00;0.62;6.47;5.87;;;24.50;34.00;;;;;;2265741;61;20412;-58
2021/09/06 06:55:52;0.00;0.00;0.62;0.00;0.00;0.62;6.97;6.00;;;24.50;34.00;;;;;;2265029;61;20620;-61
2021/09/06 06:58:39;0.00;0.00;0.62;0.00;0.00;0.62;5.83;5.23;;;24.50;34.00;;;;;;2265884;61;20353;-60
2021/09/06 07:01:29;0.00;0.00;0.62;0.00;0.00;0.62;7.17;6.57;;;24.50;34.10;;;;;;2265597;61;20369;-61
2021/09/06 07:04:14;0.00;0.00;0.62;0.00;0.00;0.62;6.40;5.80;;;24.50;34.20;;;;;;2265060;61;20589;-61
2021/09/06 07:07:02;0.00;0.00;0.62;0.00;0.00;0.62;6.67;5.70;;;24.50;34.20;;;;;;2265739;61;20598;-60
2021/09/06 07:09:46;0.00;0.00;0.62;0.00;0.00;0.62;6.93;6.23;;;24.60;34.30;;;;;;2265483;61;20634;-61
2021/09/06 07:12:31;0.00;0.00;0.62;0.00;0.00;0.62;5.57;5.07;;;24.60;34.30;;;;;;2264960;61;20404;-60
2021/09/06 07:15:17;0.00;0.00;0.62;0.00;0.00;0.62;6.10;5.50;;;24.60;34.30;;;;;;2263954;61;20353;-61
2021/09/06 07:18:07;0.00;0.00;0.62;0.00;0.00;0.62;6.00;5.40;;;24.60;34.40;;;;;;2265326;61;20381;-58
2021/09/06 07:20:52;0.00;0.00;0.62;0.00;0.00;0.62;6.93;6.23;;;24.60;34.40;;;;;;2265093;61;20497;-59
2021/09/06 07:23:37;0.00;0.00;0.62;0.00;0.00;0.62;6.07;5.50;;;24.60;34.40;;;;;;2264067;61;20392;-61
2021/09/06 07:26:22;0.00;0.00;0.62;0.00;0.00;0.62;7.70;7.00;;;24.60;34.40;;;;;;2264958;61;20464;-58
2021/09/06 07:29:12;0.00;0.00;0.62;0.00;0.00;0.62;6.57;5.97;;;24.70;34.50;;;;;;2265763;61;20382;-58
2021/09/06 07:31:57;0.00;0.00;0.62;0.00;0.00;0.62;7.13;5.73;;;24.70;34.50;;;;;;2265094;61;20745;-59
2021/09/06 07:34:45;0.00;0.00;0.62;0.00;0.00;0.62;7.67;6.43;;;24.70;34.50;;;;;;2265348;61;20357;-57
2021/09/06 07:37:31;0.00;0.00;0.62;0.00;0.00;0.62;7.67;6.50;;;24.70;34.50;;;;;;2265312;61;20787;-56
2021/09/06 07:40:16;0.00;0.00;0.62;0.00;0.00;0.62;8.17;7.07;;;24.70;34.50;;;;;;2264819;61;20573;-61
2021/09/06 07:43:05;0.00;0.00;0.62;0.00;0.00;0.62;7.30;6.60;;;24.70;34.50;;;;;;2265516;61;20781;-61
2021/09/06 07:45:49;0.00;0.00;0.62;0.00;0.00;0.62;8.23;7.47;;;24.80;34.60;;;;;;2265077;61;20767;-57
2021/09/06 07:48:34;0.00;0.00;0.62;0.00;0.00;0.62;7.23;6.53;;;24.80;34.60;;;;;;2264908;61;20356;-58
2021/09/06 07:51:20;0.00;0.00;0.62;0.00;0.00;0.62;11.00;7.20;;;24.80;34.60;;;;;;2265430;61;20391;-60
2021/09/06 07:54:06;0.00;0.00;0.62;0.00;0.00;0.62;6.60;6.00;;;24.80;34.60;;;;;;2265234;61;20419;-60
2021/09/06 07:56:55;0.00;0.00;0.62;0.00;0.00;0.62;7.67;6.87;;;24.80;34.60;;;;;;2265271;61;20384;-59
2021/09/06 07:59:42;0.00;0.00;0.62;0.00;0.00;0.62;7.53;6.73;;;24.90;34.70;;;;;;2264850;61;20780;-60
2021/09/06 08:02:27;0.00;0.00;0.62;0.00;0.00;0.62;6.73;6.13;;;24.90;34.70;;;;;;2264860;61;20432;-60
2021/09/06 08:05:12;0.00;0.00;0.62;0.00;0.00;0.62;7.70;6.90;;;24.90;34.70;;;;;;2265579;61;20361;-61
2021/09/06 08:07:58;0.00;0.00;0.62;0.00;0.00;0.62;7.47;6.70;;;24.90;34.70;;;;;;2265485;61;20357;-57
2021/09/06 08:10:45;0.00;0.00;0.62;0.00;0.00;0.62;7.40;6.53;;;24.90;34.70;;;;;;2264541;61;20377;-56
2021/09/06 08:13:37;0.00;0.00;0.62;0.00;0.00;0.62;7.00;6.30;;;25.00;34.80;;;;;;2265431;61;20373;-58
2021/09/06 08:16:22;0.00;0.00;0.62;0.00;0.00;0.62;7.10;6.40;;;25.00;34.70;;;;;;2264783;61;20427;-59
2021/09/06 08:19:06;0.00;0.00;0.62;0.00;0.00;0.62;6.40;5.70;;;25.00;34.70;;;;;;2265735;61;20377;-60
2021/09/06 08:21:53;0.00;0.00;0.62;0.00;0.00;0.62;6.57;5.90;;;25.00;34.70;;;;;;2264543;61;20385;-60
2021/09/06 08:24:41;0.00;0.00;0.62;0.00;0.00;0.62;7.17;6.50;;;25.10;34.70;;;;;;2264791;61;20415;-60
2021/09/06 08:27:25;0.00;0.00;0.62;0.00;0.00;0.62;5.97;5.47;;;25.10;34.70;;;;;;2265458;61;20365;-60
2021/09/06 08:30:12;0.00;0.00;0.62;0.00;0.00;0.62;6.27;5.67;;;25.10;34.70;;;;;;2264859;61;20433;-60
2021/09/06 08:32:57;0.00;0.00;0.62;0.00;0.00;0.62;6.80;5.90;;;25.10;34.70;;;;;;2264789;61;20744;-60
2021/09/06 08:35:42;0.00;0.00;0.62;0.00;0.00;0.62;6.67;5.97;;;25.10;34.70;;;;;;2265330;61;20586;-61
2021/09/06 08:38:27;0.00;0.00;0.62;0.00;0.00;0.62;7.57;6.17;;;25.20;34.80;;;;;;2265076;61;20360;-61
2021/09/06 08:41:19;0.00;0.00;0.62;0.00;0.00;0.62;6.60;6.00;;;25.20;34.70;;;;;;2265271;61;20779;-60
2021/09/06 08:44:04;0.00;0.00;0.62;0.00;0.00;0.62;9.67;7.70;;;25.20;34.70;;;;;;2265603;61;20443;-60
2021/09/06 08:46:49;0.00;0.00;0.62;0.00;0.00;0.62;9.53;8.30;;;25.30;34.70;;;;;;2265486;61;20364;-60
2021/09/06 08:49:35;0.00;0.00;0.62;0.00;0.00;0.62;8.33;7.53;;;25.20;34.70;;;;;;2265994;61;20408;-61
2021/09/06 08:52:20;0.00;0.00;0.62;0.00;0.00;0.62;11.13;8.20;;;25.20;34.70;;;;;;2265529;61;20396;-61
2021/09/06 08:55:06;0.00;0.00;0.62;0.00;0.00;0.62;7.67;6.97;;;25.30;34.70;;;;;;2265322;61;20687;-61
2021/09/06 08:57:52;0.00;0.00;0.62;0.00;0.00;0.62;8.10;7.30;;;25.30;34.60;;;;;;2265917;61;20384;-60
2021/09/06 09:00:37;0.00;0.00;0.62;0.00;0.00;0.62;8.97;8.17;;;25.30;34.60;;;;;;2265684;61;20684;-61
2021/09/06 09:03:37;0.00;0.00;0.62;0.00;0.00;0.62;8.93;7.57;;;25.30;34.60;;;;;;2266006;61;20419;-61
2021/09/06 09:06:49;0.00;0.00;0.62;0.00;0.00;0.62;8.90;8.00;;;25.40;34.80;;;;;;2266004;61;20353;-60
2021/09/06 09:09:51;0.00;0.00;0.62;0.00;0.00;0.62;7.63;6.90;;;25.30;34.80;;;;;;2265297;61;20388;-61
2021/09/06 09:13:10;0.00;0.00;0.62;0.00;0.00;0.62;8.73;7.80;;;25.40;34.80;;;;;;2265657;61;20761;-60
2021/09/06 09:16:17;0.00;0.00;0.62;0.00;0.00;0.62;8.80;7.83;;;25.40;34.90;;;;;;2265186;61;20407;-59
2021/09/06 09:19:23;0.00;0.00;0.62;0.00;0.00;0.62;10.20;8.10;;;25.40;35.00;;;;;;2266296;61;20392;-61
2021/09/06 09:22:31;0.00;0.00;0.62;0.00;0.00;0.62;8.73;7.73;;;25.50;35.10;;;;;;2266002;61;20376;-60
2021/09/06 09:25:33;0.00;0.00;0.62;0.00;0.00;0.62;8.00;7.20;;;25.50;35.10;;;;;;2266061;61;20380;-59
2021/09/06 09:28:50;0.00;0.00;0.62;0.00;0.00;0.62;9.17;7.83;;;25.50;35.10;;;;;;2265623;61;20357;-61
2021/09/06 09:31:56;0.00;0.00;0.62;0.00;0.00;0.62;8.77;7.87;;;25.50;35.00;;;;;;2265310;61;20377;-61
2021/09/06 09:34:55;0.00;0.00;0.62;0.00;0.00;0.62;8.90;8.00;;;25.60;35.10;;;;;;2265985;61;20345;-61
2021/09/06 09:37:47;0.00;0.00;0.62;0.00;0.00;0.62;8.03;7.23;;;25.60;35.10;;;;;;2265458;61;20423;-61
2021/09/06 09:40:37;0.00;0.00;0.62;0.00;0.00;0.62;7.57;6.80;;;25.70;35.20;;;;;;2265195;61;20740;-61
2021/09/06 09:43:30;0.00;0.00;0.62;0.00;0.00;0.62;9.00;8.10;;;25.70;35.10;;;;;;2265526;61;20427;-61
2021/09/06 09:46:19;0.00;0.00;0.62;0.00;0.00;0.62;7.57;6.77;;;25.70;35.00;;;;;;2265893;61;20749;-60
2021/09/06 09:49:13;0.00;0.00;0.62;0.00;0.00;0.62;8.90;8.00;;;25.80;35.10;;;;;;2265242;61;20573;-61
2021/09/06 09:51:59;0.00;0.00;0.62;0.00;0.00;0.62;8.17;7.23;;;25.80;35.10;;;;;;2265821;61;20416;-60
2021/09/06 09:54:46;0.00;0.00;0.62;0.00;0.00;0.62;9.20;8.30;;;25.80;35.00;;;;;;2265674;61;20357;-60
2021/09/06 09:57:31;0.00;0.00;0.62;0.00;0.00;0.62;8.70;7.50;;;25.90;35.10;;;;;;2265863;61;20744;-60
2021/09/06 10:00:19;0.00;0.00;0.62;0.00;0.00;0.62;10.40;8.13;;;25.90;35.20;;;;;;2265784;61;20462;-60
2021/09/06 10:03:10;0.00;0.00;0.62;0.00;0.00;0.62;9.90;8.90;;;25.90;35.20;;;;;;2266064;61;20378;-56
2021/09/06 10:05:55;0.00;0.00;0.62;0.00;0.00;0.62;10.17;8.37;;;26.00;35.30;;;;;;2265741;61;20757;-60
2021/09/06 10:08:41;0.00;0.00;0.62;0.00;0.00;0.62;9.43;8.53;;;26.00;35.20;;;;;;2265674;61;20736;-60
2021/09/06 10:11:38;0.00;0.00;0.62;0.00;0.00;0.62;9.50;8.30;;;26.00;35.20;;;;;;2265631;61;20584;-58
2021/09/06 10:14:26;0.00;0.00;0.62;0.00;0.00;0.62;8.90;7.60;;;26.00;35.20;;;;;;2265838;61;20357;-60
2021/09/06 10:17:12;0.00;0.00;0.62;0.00;0.00;0.62;8.43;7.40;;;26.10;35.20;;;;;;2265877;61;20423;-60
2021/09/06 10:19:58;0.00;0.00;0.62;0.00;0.00;0.62;12.37;8.87;;;26.10;35.20;;;;;;2265871;61;20407;-57
2021/09/06 10:22:47;0.00;0.00;0.62;0.00;0.00;0.62;10.07;8.70;;;26.20;35.20;;;;;;2265703;61;20750;-60
2021/09/06 10:25:34;0.00;0.00;0.62;0.00;0.00;0.62;11.07;9.30;;;26.20;35.20;;;;;;2266094;61;20735;-59
2021/09/06 10:28:29;0.00;0.00;0.62;0.00;0.00;0.62;8.93;8.00;;;26.20;35.20;;;;;;2265855;61;20396;-60
2021/09/06 10:31:19;0.00;0.00;0.62;0.00;0.00;0.62;8.90;8.10;;;26.20;35.10;;;;;;2265698;61;20369;-60
2021/09/06 10:34:08;0.00;0.00;0.62;0.00;0.00;0.62;8.50;7.67;;;26.30;35.20;;;;;;2266028;61;20356;-60
2021/09/06 10:37:02;0.00;0.00;0.62;0.00;0.00;0.62;7.70;6.90;;;26.30;35.10;;;;;;2265823;61;20787;-60
2021/09/06 10:39:47;0.00;0.00;0.62;0.00;0.00;0.62;10.10;9.10;;;26.30;35.10;;;;;;2265882;61;20358;-60
2021/09/06 10:42:33;0.00;0.00;0.62;0.00;0.00;0.62;9.17;8.20;;;26.40;35.10;;;;;;2265383;61;20404;-59
2021/09/06 10:45:20;0.00;0.00;0.62;0.00;0.00;0.62;9.10;8.20;;;26.40;35.10;;;;;;2265309;61;20368;-61
2021/09/06 10:48:06;0.00;0.00;0.62;0.00;0.00;0.62;9.60;8.13;;;26.50;35.20;;;;;;2266026;61;20353;-61
2021/09/06 10:50:53;0.00;0.00;0.62;0.00;0.00;0.62;8.43;7.53;;;26.50;35.10;;;;;;2265610;61;20729;-61
2021/09/06 10:53:39;0.00;0.00;0.62;0.00;0.00;0.62;7.87;7.07;;;26.50;35.10;;;;;;2265615;61;20377;-60
2021/09/06 10:56:26;0.00;0.00;0.62;0.00;0.00;0.62;9.00;8.10;;;26.60;35.10;;;;;;2265758;61;20352;-60
2021/09/06 10:59:13;0.00;0.00;0.62;0.00;0.00;0.62;9.30;8.40;;;26.60;35.00;;;;;;2265802;61;20357;-61
2021/09/06 11:01:59;0.00;0.00;0.62;0.00;0.00;0.62;10.80;8.50;;;26.60;35.00;;;;;;2266002;61;20465;-61